createdAt,value
2024-04-10T00:00:18.523Z,98.19
2024-04-10T00:01:18.317Z,97.89
2024-04-10T00:02:18.538Z,98.09
2024-04-10T00:03:20.487Z,98.19
2024-04-10T00:04:18.584Z,97.99
2024-04-10T00:05:19.014Z,97.89
2024-04-10T00:06:18.271Z,97.89
2024-04-10T00:07:18.270Z,97.93
2024-04-10T00:08:18.438Z,97.99
2024-04-10T00:09:18.286Z,98.14
2024-04-10T00:10:18.394Z,97.93
2024-04-10T00:11:18.489Z,98.09
2024-04-10T00:12:18.206Z,98.14
2024-04-10T00:13:18.293Z,98.14
2024-04-10T00:14:18.335Z,98.14
2024-04-10T00:15:18.324Z,98.09
2024-04-10T00:16:18.285Z,98.03
2024-04-10T00:17:18.440Z,97.93
2024-04-10T00:18:18.156Z,98.03
2024-04-10T00:19:18.338Z,97.93
2024-04-10T00:20:18.383Z,97.99
2024-04-10T00:21:18.253Z,98.24
2024-04-10T00:22:18.250Z,98.03
2024-04-10T00:23:18.373Z,98.24
2024-04-10T00:24:18.123Z,98.14
2024-04-10T00:25:18.142Z,98.14
2024-04-10T00:26:18.065Z,98.14
2024-04-10T00:27:18.001Z,97.93
2024-04-10T00:28:18.106Z,98.03
2024-04-10T00:29:18.120Z,97.93
2024-04-10T00:30:18.143Z,98.03
2024-04-10T00:31:18.091Z,97.88
2024-04-10T00:32:18.000Z,97.57
2024-04-10T00:33:18.047Z,97.57
2024-04-10T00:34:18.253Z,97.57
2024-04-10T00:35:18.121Z,97.67
2024-04-10T00:36:17.972Z,97.88
2024-04-10T00:37:17.934Z,98.08
2024-04-10T00:38:17.900Z,97.78
2024-04-10T00:39:18.075Z,97.98
2024-04-10T00:40:18.024Z,97.88
2024-04-10T00:41:18.078Z,97.98
2024-04-10T00:42:17.974Z,97.98
2024-04-10T00:43:17.822Z,97.98
2024-04-10T00:44:17.975Z,98.08
2024-04-10T00:45:17.954Z,97.98
2024-04-10T00:46:18.000Z,98.02
2024-04-10T00:47:17.983Z,98.02
2024-04-10T00:48:18.260Z,98.02
2024-04-10T00:49:17.849Z,98.02
2024-04-10T00:50:17.889Z,98.02
2024-04-10T00:51:17.719Z,98.02
2024-04-10T00:52:17.910Z,98.02
2024-04-10T00:53:17.741Z,97.82
2024-04-10T00:54:17.895Z,98.02
2024-04-10T00:55:17.826Z,98.02
2024-04-10T00:56:20.214Z,98.02
2024-04-10T00:57:17.749Z,97.82
2024-04-10T00:58:17.834Z,97.87
2024-04-10T00:59:17.907Z,97.72
2024-04-10T01:00:17.802Z,97.92
2024-04-10T01:01:17.861Z,97.62
2024-04-10T01:02:17.877Z,97.72
2024-04-10T01:03:17.789Z,97.66
2024-04-10T01:04:17.839Z,97.62
2024-04-10T01:05:17.833Z,97.97
2024-04-10T01:06:17.565Z,98.18
2024-04-10T01:07:17.667Z,98.18
2024-04-10T01:08:17.544Z,97.66
2024-04-10T01:09:17.537Z,97.72
2024-04-10T01:10:17.640Z,97.87
2024-04-10T01:11:17.671Z,97.87
2024-04-10T01:12:17.720Z,97.87
2024-04-10T01:13:18.044Z,97.87
2024-04-10T01:14:17.668Z,97.97
2024-04-10T01:15:17.592Z,97.97
2024-04-10T01:16:17.800Z,97.77
2024-04-10T01:17:17.759Z,97.87
2024-04-10T01:18:17.565Z,97.87
2024-04-10T01:19:17.590Z,97.87
2024-04-10T01:20:17.595Z,97.87
2024-04-10T01:21:17.374Z,97.77
2024-04-10T01:22:17.593Z,98.07
2024-04-10T01:23:17.504Z,98.07
2024-04-10T01:24:17.362Z,97.97
2024-04-10T01:25:17.634Z,97.87
2024-04-10T01:26:17.660Z,97.77
2024-04-10T01:27:17.337Z,98.02
2024-04-10T01:28:17.494Z,97.91
2024-04-10T01:29:17.479Z,98.02
2024-04-10T01:30:17.480Z,97.91
2024-04-10T01:31:17.427Z,97.81
2024-04-10T01:32:17.753Z,97.61
2024-04-10T01:33:17.629Z,97.91
2024-04-10T01:34:17.516Z,98.02
2024-04-10T01:35:17.361Z,98.02
2024-04-10T01:36:17.395Z,97.81
2024-04-10T01:37:17.290Z,98.16
2024-04-10T01:38:17.385Z,98.11
2024-04-10T01:39:17.336Z,98.11
2024-04-10T01:40:17.350Z,97.91
2024-04-10T01:41:17.317Z,98.11
2024-04-10T01:42:17.292Z,98.22
2024-04-10T01:43:17.137Z,97.55
2024-04-10T01:44:17.294Z,98.36
2024-04-10T01:45:17.225Z,97.96
2024-04-10T01:46:17.229Z,97.75
2024-04-10T01:47:17.254Z,97.86
2024-04-10T01:48:17.370Z,97.86
2024-04-10T01:49:17.271Z,98.06
2024-04-10T01:50:17.246Z,97.96
2024-04-10T01:51:17.222Z,97.96
2024-04-10T01:52:17.171Z,98.16
2024-04-10T01:53:17.041Z,97.75
2024-04-10T01:54:17.158Z,97.75
2024-04-10T01:55:17.144Z,97.75
2024-04-10T01:56:17.274Z,97.75
2024-04-10T01:57:17.088Z,97.80
2024-04-10T01:58:17.181Z,97.90
2024-04-10T01:59:17.016Z,98.11
2024-04-10T02:00:16.958Z,98.00
2024-04-10T02:01:17.155Z,98.00
2024-04-10T02:02:17.208Z,98.11
2024-04-10T02:03:17.270Z,98.11
2024-04-10T02:04:17.083Z,97.90
2024-04-10T02:05:17.076Z,98.31
2024-04-10T02:06:16.994Z,97.90
2024-04-10T02:07:16.847Z,97.70
2024-04-10T02:08:17.028Z,97.90
2024-04-10T02:09:16.965Z,97.80
2024-04-10T02:10:17.115Z,98.36
2024-04-10T02:11:17.112Z,98.31
2024-04-10T02:12:17.000Z,97.85
2024-04-10T02:13:16.935Z,97.90
2024-04-10T02:14:16.885Z,98.05
2024-04-10T02:15:16.808Z,97.80
2024-04-10T02:16:16.929Z,97.95
2024-04-10T02:17:17.021Z,98.25
2024-04-10T02:18:16.829Z,98.05
2024-04-10T02:19:16.931Z,98.05
2024-04-10T02:20:16.903Z,98.15
2024-04-10T02:21:16.832Z,97.85
2024-04-10T02:22:16.932Z,97.95
2024-04-10T02:23:16.934Z,97.85
2024-04-10T02:24:16.773Z,98.05
2024-04-10T02:25:16.807Z,97.95
2024-04-10T02:26:17.187Z,98.05
2024-04-10T02:27:16.747Z,97.95
2024-04-10T02:28:16.686Z,97.95
2024-04-10T02:29:16.688Z,98.05
2024-04-10T02:30:16.736Z,98.25
2024-04-10T02:31:16.677Z,98.05
2024-04-10T02:32:16.706Z,97.85
2024-04-10T02:33:16.721Z,98.05
2024-04-10T02:34:16.814Z,97.99
2024-04-10T02:35:16.758Z,97.85
2024-04-10T02:36:16.711Z,98.10
2024-04-10T02:37:16.588Z,97.89
2024-04-10T02:38:16.666Z,98.10
2024-04-10T02:39:16.650Z,97.64
2024-04-10T02:40:16.637Z,98.10
2024-04-10T02:41:16.679Z,97.99
2024-04-10T02:42:16.617Z,97.85
2024-04-10T02:43:16.630Z,97.79
2024-04-10T02:44:16.544Z,98.20
2024-04-10T02:45:16.567Z,97.74
2024-04-10T02:46:16.746Z,97.79
2024-04-10T02:47:16.508Z,97.89
2024-04-10T02:48:16.461Z,98.40
2024-04-10T02:49:16.462Z,97.89
2024-04-10T02:50:16.545Z,97.99
2024-04-10T02:51:16.618Z,98.40
2024-04-10T02:52:16.472Z,98.40
2024-04-10T02:53:16.522Z,97.89
2024-04-10T02:54:16.544Z,97.79
2024-04-10T02:55:16.475Z,97.79
2024-04-10T02:56:16.397Z,98.04
2024-04-10T02:57:16.384Z,98.10
2024-04-10T02:58:16.320Z,98.14
2024-04-10T02:59:16.476Z,97.89
2024-04-10T03:00:16.396Z,98.14
2024-04-10T03:01:16.355Z,98.04
2024-04-10T03:02:16.390Z,98.14
2024-04-10T03:03:16.549Z,98.10
2024-04-10T03:04:16.416Z,98.30
2024-04-10T03:05:16.333Z,97.83
2024-04-10T03:06:16.423Z,98.10
2024-04-10T03:07:16.302Z,98.04
2024-04-10T03:08:16.418Z,98.24
2024-04-10T03:09:16.327Z,97.99
2024-04-10T03:10:16.335Z,98.04
2024-04-10T03:11:16.311Z,98.20
2024-04-10T03:12:16.548Z,98.10
2024-04-10T03:13:16.201Z,98.10
2024-04-10T03:14:16.276Z,98.14
2024-04-10T03:15:16.171Z,97.94
2024-04-10T03:16:16.308Z,98.20
2024-04-10T03:17:16.151Z,97.74
2024-04-10T03:18:16.282Z,97.89
2024-04-10T03:19:16.201Z,97.94
2024-04-10T03:20:16.276Z,97.42
2024-04-10T03:21:16.185Z,97.69
2024-04-10T03:22:16.176Z,97.83
2024-04-10T03:23:16.155Z,97.94
2024-04-10T03:24:16.053Z,98.14
2024-04-10T03:25:16.175Z,97.94
2024-04-10T03:26:16.234Z,97.94
2024-04-10T03:27:16.163Z,98.04
2024-04-10T03:28:16.105Z,98.14
2024-04-10T03:29:15.979Z,98.14
2024-04-10T03:30:15.919Z,98.24
2024-04-10T03:31:15.903Z,98.04
2024-04-10T03:32:16.079Z,98.14
2024-04-10T03:33:16.158Z,98.04
2024-04-10T03:34:16.016Z,97.83
2024-04-10T03:35:16.075Z,97.22
2024-04-10T03:36:15.857Z,97.83
2024-04-10T03:37:15.837Z,97.83
2024-04-10T03:38:15.931Z,97.12
2024-04-10T03:39:15.933Z,97.47
2024-04-10T03:40:16.018Z,97.67
2024-04-10T03:41:16.007Z,97.37
2024-04-10T03:42:16.056Z,97.37
2024-04-10T03:43:15.932Z,97.37
2024-04-10T03:44:15.888Z,97.37
2024-04-10T03:45:15.922Z,97.37
2024-04-10T03:46:15.919Z,97.47
2024-04-10T03:47:15.833Z,97.47
2024-04-10T03:48:16.158Z,97.47
2024-04-10T03:49:15.746Z,97.47
2024-04-10T03:50:19.025Z,97.57
2024-04-10T03:51:15.874Z,97.67
2024-04-10T03:52:15.811Z,97.37
2024-04-10T03:53:15.969Z,97.37
2024-04-10T03:54:15.786Z,97.37
2024-04-10T03:55:15.753Z,97.37
2024-04-10T03:56:15.853Z,97.37
2024-04-10T03:57:15.781Z,97.16
2024-04-10T03:58:15.802Z,97.27
2024-04-10T03:59:15.815Z,97.67
2024-04-10T04:00:15.714Z,97.67
2024-04-10T04:01:15.914Z,97.67
2024-04-10T04:02:15.749Z,97.78
2024-04-10T04:03:15.853Z,97.27
2024-04-10T04:04:15.782Z,97.16
2024-04-10T04:05:15.557Z,97.67
2024-04-10T04:06:15.628Z,97.67
2024-04-10T04:07:15.562Z,97.67
2024-04-10T04:08:15.669Z,97.78
2024-04-10T04:09:15.639Z,97.67
2024-04-10T04:10:15.652Z,97.67
2024-04-10T04:11:15.638Z,97.88
2024-04-10T04:12:15.575Z,97.88
2024-04-10T04:13:15.526Z,97.88
2024-04-10T04:14:15.671Z,97.47
2024-04-10T04:15:15.409Z,97.78
2024-04-10T04:16:15.605Z,97.98
2024-04-10T04:17:15.557Z,97.47
2024-04-10T04:18:15.485Z,97.57
2024-04-10T04:19:15.581Z,97.47
2024-04-10T04:20:15.625Z,97.47
2024-04-10T04:21:15.461Z,97.67
2024-04-10T04:22:15.527Z,97.57
2024-04-10T04:23:15.604Z,97.37
2024-04-10T04:24:15.440Z,97.47
2024-04-10T04:25:15.477Z,97.47
2024-04-10T04:26:15.324Z,97.67
2024-04-10T04:27:15.587Z,97.47
2024-04-10T04:28:15.295Z,97.37
2024-04-10T04:29:15.310Z,97.27
2024-04-10T04:30:15.487Z,96.96
2024-04-10T04:31:15.399Z,97.16
2024-04-10T04:32:15.522Z,97.16
2024-04-10T04:33:15.828Z,97.16
2024-04-10T04:34:15.641Z,97.16
2024-04-10T04:35:15.230Z,97.16
2024-04-10T04:36:15.168Z,97.16
2024-04-10T04:37:15.342Z,97.37
2024-04-10T04:38:15.348Z,97.57
2024-04-10T04:39:15.315Z,97.16
2024-04-10T04:40:15.277Z,97.57
2024-04-10T04:41:15.157Z,97.27
2024-04-10T04:42:15.273Z,97.57
2024-04-10T04:43:16.693Z,97.53
2024-04-10T04:44:15.320Z,97.33
2024-04-10T04:45:15.232Z,97.67
2024-04-10T04:46:15.693Z,97.63
2024-04-10T04:47:15.280Z,97.74
2024-04-10T04:48:15.205Z,97.42
2024-04-10T04:49:15.106Z,97.53
2024-04-10T04:50:15.346Z,97.53
2024-04-10T04:51:15.011Z,97.33
2024-04-10T04:52:15.107Z,97.33
2024-04-10T04:53:15.225Z,97.38
2024-04-10T04:54:15.060Z,97.49
2024-04-10T04:55:15.100Z,97.38
2024-04-10T04:56:15.221Z,97.49
2024-04-10T04:57:15.013Z,97.49
2024-04-10T04:58:14.991Z,97.69
2024-04-10T04:59:15.024Z,97.28
2024-04-10T05:00:14.886Z,97.58
2024-04-10T05:01:15.078Z,97.58
2024-04-10T05:02:15.178Z,97.58
2024-04-10T05:03:15.096Z,96.56
2024-04-10T05:04:15.058Z,96.87
2024-04-10T05:05:14.905Z,96.72
2024-04-10T05:06:16.351Z,96.92
2024-04-10T05:07:14.971Z,96.92
2024-04-10T05:08:14.948Z,96.92
2024-04-10T05:09:14.864Z,96.92
2024-04-10T05:10:14.895Z,96.92
2024-04-10T05:11:14.993Z,96.92
2024-04-10T05:12:14.979Z,96.78
2024-04-10T05:13:14.900Z,96.68
2024-04-10T05:14:14.952Z,96.68
2024-04-10T05:15:14.835Z,96.68
2024-04-10T05:16:15.003Z,96.27
2024-04-10T05:17:14.813Z,96.47
2024-04-10T05:18:15.009Z,96.73
2024-04-10T05:19:24.038Z,96.43
2024-04-10T05:20:22.532Z,96.53
2024-04-10T05:23:38.508Z,97.09
2024-04-10T05:24:45.384Z,97.20
2024-04-10T05:26:53.657Z,97.24
2024-04-10T05:27:53.611Z,97.34
2024-04-10T05:28:53.678Z,97.96
2024-04-10T05:29:53.534Z,98.22
2024-04-10T05:30:53.596Z,97.91
2024-04-10T05:31:53.642Z,97.91
2024-04-10T05:32:54.064Z,97.56
2024-04-10T05:33:53.772Z,97.56
2024-04-10T05:34:53.458Z,97.16
2024-04-10T05:35:53.704Z,97.52
2024-04-10T05:36:53.464Z,96.80
2024-04-10T05:37:53.493Z,96.80
2024-04-10T05:38:53.499Z,96.96
2024-04-10T05:39:53.516Z,97.27
2024-04-10T05:40:53.520Z,96.96
2024-04-10T05:41:53.423Z,96.51
2024-04-10T05:42:53.535Z,96.61
2024-04-10T05:43:53.464Z,96.36
2024-04-10T05:46:25.020Z,96.15
2024-04-10T05:47:25.573Z,96.26
2024-04-10T05:48:25.263Z,96.15
2024-04-10T05:49:24.988Z,96.62
2024-04-10T05:50:25.329Z,96.42
2024-04-10T05:51:25.238Z,96.52
2024-04-10T05:52:25.034Z,96.01
2024-04-10T05:53:24.762Z,96.42
2024-04-10T05:54:24.701Z,96.07
2024-04-10T05:55:24.729Z,96.07
2024-04-10T05:56:24.817Z,95.97
2024-04-10T05:57:24.864Z,96.43
2024-04-10T05:58:24.744Z,96.12
2024-04-10T05:59:24.867Z,96.53
2024-04-10T06:00:24.704Z,96.02
2024-04-10T06:05:57.241Z,95.94
2024-04-10T06:06:57.157Z,96.23
2024-04-10T06:07:57.402Z,96.89
2024-04-10T06:08:57.752Z,96.34
2024-04-10T06:09:57.131Z,96.95
2024-04-10T06:11:16.914Z,96.84
2024-04-10T06:12:00.102Z,96.84
2024-04-10T06:17:05.575Z,96.60
2024-04-10T06:24:54.506Z,97.16
2024-04-10T06:27:40.821Z,97.52
2024-04-10T06:28:40.719Z,97.72
2024-04-10T06:29:40.667Z,97.62
2024-04-10T06:30:40.770Z,97.83
2024-04-10T06:31:40.669Z,97.58
2024-04-10T06:32:40.845Z,97.07
2024-04-10T06:33:41.447Z,97.43
2024-04-10T06:34:53.750Z,97.13
2024-04-10T06:35:40.680Z,97.02
2024-04-10T06:36:40.584Z,96.82
2024-04-10T06:37:40.661Z,96.11
2024-04-10T06:38:40.685Z,96.47
2024-04-10T06:41:07.538Z,96.93
2024-04-10T06:42:06.676Z,96.83
2024-04-10T06:43:08.388Z,96.33
2024-04-10T06:44:06.675Z,96.83
2024-04-10T06:46:36.412Z,96.78
2024-04-10T06:47:36.468Z,96.78
2024-04-10T06:48:34.021Z,96.48
2024-04-10T11:03:55.446Z,97.53
2024-04-10T11:09:07.814Z,96.94
2024-04-10T11:15:03.976Z,97.24
2024-04-10T11:25:55.378Z,97.44
2024-04-10T12:39:00.913Z,97.91
2024-04-10T12:43:36.613Z,97.36
2024-04-10T12:54:50.674Z,96.67
2024-04-10T13:11:17.946Z,97.60
2024-04-10T14:02:17.245Z,99.29
2024-04-10T14:11:48.521Z,99.18
2024-04-10T15:32:28.255Z,99.99
2024-04-10T15:49:51.225Z,99.99
2024-04-10T15:58:25.651Z,99.99
2024-04-10T15:59:25.656Z,99.99
2024-04-10T16:00:25.715Z,99.99
2024-04-10T16:01:25.659Z,99.99
2024-04-10T16:02:25.670Z,99.99
2024-04-10T16:03:25.941Z,99.99
2024-04-10T16:04:25.745Z,99.08
2024-04-10T16:05:25.713Z,98.99
2024-04-10T16:06:25.722Z,98.68
2024-04-10T16:07:25.532Z,98.68
2024-04-10T16:08:25.548Z,98.18
2024-04-10T16:09:25.594Z,98.38
2024-04-10T16:10:25.500Z,97.58
2024-04-10T16:11:25.703Z,98.22
2024-04-10T16:12:25.557Z,97.88
2024-04-10T16:13:25.477Z,97.98
2024-04-10T16:14:25.506Z,98.02
2024-04-10T16:15:25.429Z,97.62
2024-04-10T16:16:25.468Z,98.13
2024-04-10T16:17:25.498Z,97.82
2024-04-10T16:18:25.440Z,98.43
2024-04-10T16:19:25.502Z,98.53
2024-04-10T16:20:25.491Z,98.83
2024-04-10T16:21:25.409Z,98.63
2024-04-10T16:22:25.431Z,98.63
2024-04-10T16:23:25.422Z,98.22
2024-04-10T16:24:25.357Z,99.33
2024-04-10T16:25:25.350Z,99.28
2024-04-10T16:26:25.835Z,98.83
2024-04-10T16:27:25.293Z,98.83
2024-04-10T16:28:25.313Z,98.83
2024-04-10T16:29:25.355Z,99.33
2024-04-10T16:30:25.261Z,99.08
2024-04-10T16:31:25.255Z,99.38
2024-04-10T16:32:25.381Z,98.98
2024-04-10T16:33:25.436Z,99.18
2024-04-10T16:34:25.416Z,99.28
2024-04-10T16:35:25.226Z,98.98
2024-04-10T16:36:25.191Z,99.18
2024-04-10T16:37:25.198Z,99.38
2024-04-10T16:38:25.202Z,98.98
2024-04-10T16:39:25.191Z,99.28
2024-04-10T16:40:25.160Z,98.78
2024-04-10T16:41:25.182Z,99.08
2024-04-10T16:42:25.118Z,99.08
2024-04-10T16:43:25.108Z,98.98
2024-04-10T16:44:25.203Z,99.18
2024-04-10T16:45:25.084Z,99.18
2024-04-10T16:46:25.229Z,98.98
2024-04-10T16:47:25.113Z,99.08
2024-04-10T16:48:25.485Z,99.18
2024-04-10T16:49:25.066Z,99.38
2024-04-10T16:50:25.094Z,99.28
2024-04-10T16:51:25.018Z,99.33
2024-04-10T16:52:25.021Z,99.22
2024-04-10T16:53:25.069Z,99.33
2024-04-10T16:54:24.988Z,99.18
2024-04-10T16:55:24.985Z,99.84
2024-04-10T16:56:25.017Z,99.63
2024-04-10T16:57:25.014Z,99.38
2024-04-10T16:59:51.772Z,99.99
2024-04-10T17:00:51.726Z,99.73
2024-04-10T17:01:51.753Z,99.99
2024-04-10T17:02:51.741Z,99.99
2024-04-10T17:03:51.759Z,99.99
2024-04-10T17:04:51.688Z,99.99
2024-04-10T17:05:51.669Z,99.99
2024-04-10T17:06:51.618Z,99.84
2024-04-10T17:07:51.613Z,99.99
2024-04-10T17:08:51.698Z,99.99
2024-04-10T17:09:51.659Z,99.99
2024-04-10T17:10:51.648Z,99.99
2024-04-10T17:11:51.763Z,99.99
2024-04-10T17:12:51.550Z,99.99
2024-04-10T17:13:51.555Z,99.99
2024-04-10T17:14:51.620Z,99.99
2024-04-10T17:15:51.548Z,99.99
2024-04-10T17:16:51.611Z,99.99
2024-04-10T17:17:51.700Z,99.99
2024-04-10T17:18:51.563Z,99.99
2024-04-10T17:19:51.467Z,99.99
2024-04-10T17:20:51.516Z,99.99
2024-04-10T17:21:51.454Z,99.99
2024-04-10T17:22:51.434Z,99.99
2024-04-10T17:23:51.503Z,99.99
2024-04-10T17:24:51.429Z,99.93
2024-04-10T17:25:51.399Z,99.99
2024-04-10T17:26:51.452Z,99.99
2024-04-10T17:27:51.385Z,99.99
2024-04-10T17:28:52.812Z,99.99
2024-04-10T17:29:51.476Z,99.99
2024-04-10T17:30:51.408Z,99.99
2024-04-10T17:31:51.359Z,99.99
2024-04-10T17:32:51.472Z,99.99
2024-04-10T17:33:51.506Z,99.99
2024-04-10T17:34:51.394Z,99.99
2024-04-10T17:35:51.346Z,99.99
2024-04-10T17:36:51.278Z,99.99
2024-04-10T17:37:51.340Z,99.88
2024-04-10T17:38:51.350Z,99.73
2024-04-10T17:39:51.278Z,99.99
2024-04-10T17:40:51.337Z,99.99
2024-04-10T17:41:51.472Z,99.99
2024-04-10T17:42:51.219Z,99.99
2024-04-10T17:43:51.279Z,99.84
2024-04-10T17:44:51.270Z,99.79
2024-04-10T17:45:51.299Z,99.73
2024-04-10T17:46:51.314Z,99.68
2024-04-10T17:47:51.297Z,99.53
2024-04-10T17:48:51.225Z,99.99
2024-04-10T17:49:51.161Z,99.73
2024-04-10T17:50:51.181Z,99.99
2024-04-10T17:51:51.113Z,99.99
2024-04-10T17:52:51.099Z,99.99
2024-04-10T17:53:51.282Z,99.68
2024-04-10T17:54:51.095Z,99.99
2024-04-10T17:55:51.061Z,99.99
2024-04-10T17:56:51.183Z,99.79
2024-04-10T17:57:51.038Z,99.84
2024-04-10T17:58:51.047Z,99.93
2024-04-10T17:59:51.060Z,99.93
2024-04-10T18:00:51.021Z,99.93
2024-04-10T18:01:50.994Z,99.99
2024-04-10T18:02:51.034Z,99.99
2024-04-10T18:03:51.090Z,99.53
2024-04-10T18:04:51.007Z,99.53
2024-04-10T18:05:51.121Z,99.33
2024-04-10T18:06:50.952Z,99.53
2024-04-10T18:07:50.927Z,99.84
2024-04-10T18:08:50.980Z,99.53
2024-04-10T18:09:50.935Z,99.43
2024-04-10T18:10:50.923Z,99.22
2024-04-10T18:11:50.994Z,99.22
2024-04-10T18:12:50.901Z,98.93
2024-04-10T18:13:50.892Z,99.43
2024-04-10T18:14:50.927Z,99.07
2024-04-10T18:15:50.841Z,98.93
2024-04-10T18:16:50.839Z,98.97
2024-04-10T18:17:51.035Z,99.22
2024-04-10T18:18:51.096Z,99.78
2024-04-10T18:19:50.955Z,99.78
2024-04-10T18:20:50.832Z,99.38
2024-04-10T18:21:50.779Z,99.48
2024-04-10T18:22:50.760Z,99.48
2024-04-10T18:23:50.838Z,99.78
2024-04-10T18:24:50.747Z,99.78
2024-04-10T18:25:50.722Z,99.78
2024-04-10T18:26:50.734Z,99.78
2024-04-10T18:27:50.732Z,99.78
2024-04-10T18:28:50.731Z,99.78
2024-04-10T18:29:50.753Z,99.42
2024-04-10T18:30:50.680Z,99.42
2024-04-10T18:31:50.827Z,99.12
2024-04-10T18:32:50.797Z,99.32
2024-04-10T18:33:50.871Z,99.22
2024-04-10T18:34:50.741Z,99.32
2024-04-10T18:35:50.710Z,99.32
2024-04-10T18:36:50.659Z,99.22
2024-04-10T18:37:50.594Z,99.32
2024-04-10T18:38:50.612Z,99.32
2024-04-10T18:39:50.570Z,99.12
2024-04-10T18:40:50.725Z,99.32
2024-04-10T18:41:50.607Z,99.52
2024-04-10T18:42:50.539Z,99.57
2024-04-10T18:43:50.564Z,99.37
2024-04-10T18:44:50.582Z,99.27
2024-04-10T18:45:50.505Z,99.16
2024-04-10T18:46:50.493Z,99.52
2024-04-10T18:47:50.909Z,99.16
2024-04-10T18:48:50.633Z,99.27
2024-04-10T18:49:50.543Z,99.27
2024-04-10T18:50:50.494Z,99.57
2024-04-10T18:51:50.433Z,99.27
2024-04-10T18:52:50.424Z,99.37
2024-04-10T18:53:50.770Z,99.16
2024-04-10T18:54:50.398Z,99.57
2024-04-10T18:55:50.390Z,99.16
2024-04-10T18:56:50.450Z,99.27
2024-04-10T18:57:50.366Z,99.16
2024-04-10T18:58:50.368Z,99.47
2024-04-10T18:59:50.457Z,99.37
2024-04-10T19:00:50.406Z,99.37
2024-04-10T19:01:50.336Z,99.47
2024-04-10T19:02:50.677Z,99.57
2024-04-10T19:03:50.393Z,99.41
2024-04-10T19:04:50.335Z,99.37
2024-04-10T19:05:50.347Z,99.67
2024-04-10T19:06:50.804Z,99.57
2024-04-10T19:07:50.348Z,99.41
2024-04-10T19:08:50.322Z,99.32
2024-04-10T19:09:50.231Z,99.52
2024-04-10T19:10:50.267Z,99.52
2024-04-10T19:11:50.360Z,99.52
2024-04-10T19:12:52.249Z,99.57
2024-04-10T19:13:50.217Z,99.37
2024-04-10T19:14:50.303Z,99.52
2024-04-10T19:15:50.177Z,99.27
2024-04-10T19:16:50.214Z,99.52
2024-04-10T19:17:50.414Z,99.52
2024-04-10T19:18:50.214Z,99.62
2024-04-10T19:19:50.123Z,99.62
2024-04-10T19:20:50.271Z,99.62
2024-04-10T19:21:50.102Z,99.21
2024-04-10T19:22:50.086Z,99.41
2024-04-10T19:23:50.202Z,99.92
2024-04-10T19:24:50.078Z,99.82
2024-04-10T19:25:50.048Z,99.72
2024-04-10T19:26:50.158Z,99.92
2024-04-10T19:27:50.068Z,99.41
2024-04-10T19:28:50.017Z,99.52
2024-04-10T19:29:50.100Z,99.62
2024-04-10T19:30:50.032Z,99.72
2024-04-10T19:31:49.987Z,99.99
2024-04-10T19:32:50.136Z,99.99
2024-04-10T19:33:50.240Z,99.99
2024-04-10T19:34:50.180Z,99.56
2024-04-10T19:35:49.979Z,99.46
2024-04-10T19:36:49.941Z,99.72
2024-04-10T19:37:49.912Z,99.41
2024-04-10T19:38:49.956Z,99.56
2024-04-10T19:39:49.904Z,99.56
2024-04-10T19:40:49.924Z,99.56
2024-04-10T19:41:49.956Z,99.36
2024-04-10T19:42:49.861Z,99.46
2024-04-10T19:43:49.855Z,99.56
2024-04-10T19:44:49.884Z,99.66
2024-04-10T19:45:49.958Z,99.77
2024-04-10T19:46:49.812Z,99.99
2024-04-10T19:47:50.027Z,99.66
2024-04-10T19:48:50.050Z,99.56
2024-04-10T19:49:49.785Z,99.21
2024-04-10T19:50:49.813Z,99.26
2024-04-10T19:51:49.769Z,99.56
2024-04-10T19:52:49.746Z,99.36
2024-04-10T19:53:49.885Z,99.77
2024-04-10T19:54:49.743Z,99.61
2024-04-10T19:55:49.725Z,99.99
2024-04-10T19:56:49.762Z,99.81
2024-04-10T19:57:49.819Z,99.99
2024-04-10T19:58:49.687Z,99.99
2024-04-10T19:59:49.751Z,99.99
2024-04-10T20:00:49.697Z,99.91
2024-04-10T20:01:49.731Z,99.99
2024-04-10T20:02:49.966Z,99.99
2024-04-10T20:03:50.091Z,99.81
2024-04-10T20:04:49.705Z,99.51
2024-04-10T20:05:49.711Z,99.99
2024-04-10T20:06:49.632Z,99.81
2024-04-10T20:07:49.599Z,99.21
2024-04-10T20:08:49.607Z,99.41
2024-04-10T20:09:49.582Z,99.41
2024-04-10T20:10:49.631Z,99.51
2024-04-10T20:11:49.767Z,99.21
2024-04-10T20:12:49.520Z,99.21
2024-04-10T20:13:49.525Z,99.51
2024-04-10T20:14:49.619Z,99.21
2024-04-10T20:15:49.492Z,99.41
2024-04-10T20:16:49.479Z,99.41
2024-04-10T20:17:49.605Z,99.51
2024-04-10T20:18:49.682Z,99.66
2024-04-10T20:19:49.576Z,99.61
2024-04-10T20:20:49.477Z,99.76
2024-04-10T20:21:49.431Z,99.46
2024-04-10T20:22:49.412Z,99.35
2024-04-10T20:23:49.441Z,99.46
2024-04-10T20:24:49.416Z,99.46
2024-04-10T20:25:49.370Z,99.55
2024-04-10T20:26:49.385Z,99.76
2024-04-10T20:27:49.349Z,99.46
2024-04-10T20:28:49.408Z,99.46
2024-04-10T20:29:49.370Z,99.35
2024-04-10T20:30:49.319Z,99.76
2024-04-10T20:31:49.391Z,99.55
2024-04-10T20:32:49.487Z,99.55
2024-04-10T20:33:49.396Z,99.66
2024-04-10T20:34:49.284Z,99.46
2024-04-10T20:35:49.441Z,99.66
2024-04-10T20:36:49.269Z,99.50
2024-04-10T20:37:49.284Z,99.35
2024-04-10T20:38:49.276Z,99.50
2024-04-10T20:39:49.218Z,99.66
2024-04-10T20:40:49.202Z,99.86
2024-04-10T20:41:49.290Z,99.50
2024-04-10T20:42:49.192Z,99.50
2024-04-10T20:43:49.178Z,99.50
2024-04-10T20:44:49.239Z,99.50
2024-04-10T20:45:49.147Z,99.60
2024-04-10T20:46:49.140Z,99.60
2024-04-10T20:47:49.285Z,99.60
2024-04-10T20:48:50.013Z,99.60
2024-04-10T20:49:49.402Z,99.80
2024-04-10T20:50:49.133Z,99.70
2024-04-10T20:51:49.080Z,99.70
2024-04-10T20:52:49.159Z,99.40
2024-04-10T20:53:49.215Z,99.30
2024-04-10T20:54:49.053Z,99.50
2024-04-10T20:55:49.060Z,99.50
2024-04-10T20:56:49.067Z,99.65
2024-04-10T20:57:49.030Z,99.75
2024-04-10T20:58:49.011Z,99.70
2024-04-10T20:59:49.111Z,99.60
2024-04-10T21:00:49.004Z,99.14
2024-04-10T21:01:52.812Z,99.04
2024-04-10T21:02:49.163Z,99.85
2024-04-10T21:03:49.354Z,99.04
2024-04-10T21:04:49.018Z,99.04
2024-04-10T21:05:49.024Z,99.85
2024-04-10T21:06:48.909Z,99.14
2024-04-10T21:07:48.896Z,99.75
2024-04-10T21:08:49.381Z,99.65
2024-04-10T21:09:48.906Z,99.75
2024-04-10T21:10:48.909Z,99.80
2024-04-10T21:11:49.003Z,98.94
2024-04-10T21:12:48.854Z,99.14
2024-04-10T21:13:48.833Z,99.14
2024-04-10T21:14:48.909Z,99.55
2024-04-10T21:15:49.712Z,99.65
2024-04-10T21:16:48.832Z,99.44
2024-04-10T21:17:49.129Z,99.49
2024-04-10T21:18:49.004Z,99.60
2024-04-10T21:19:48.831Z,99.49
2024-04-10T21:20:48.814Z,99.69
2024-04-10T21:21:48.742Z,99.69
2024-04-10T21:22:48.752Z,99.80
2024-04-10T21:23:48.809Z,99.99
2024-04-10T21:24:48.736Z,99.19
2024-04-10T21:25:49.232Z,99.69
2024-04-10T21:26:48.731Z,99.90
2024-04-10T21:27:48.679Z,99.85
2024-04-10T21:28:48.673Z,99.49
2024-04-10T21:29:48.940Z,99.74
2024-04-10T21:30:48.639Z,99.64
2024-04-10T21:31:48.678Z,99.64
2024-04-10T21:32:48.841Z,99.64
2024-04-10T21:33:48.947Z,99.64
2024-04-10T21:34:48.593Z,99.85
2024-04-10T21:35:48.738Z,99.95
2024-04-10T21:36:48.572Z,99.54
2024-04-10T21:37:48.558Z,99.64
2024-04-10T21:38:48.615Z,99.85
2024-04-10T21:39:48.627Z,99.44
2024-04-10T21:40:48.549Z,99.54
2024-04-10T21:41:48.641Z,99.44
2024-04-10T21:42:48.518Z,99.64
2024-04-10T21:43:48.492Z,99.64
2024-04-10T21:44:48.798Z,99.74
2024-04-10T21:45:48.513Z,99.44
2024-04-10T21:46:48.504Z,99.44
2024-04-10T21:47:48.979Z,99.64
2024-04-10T21:48:48.759Z,99.95
2024-04-10T21:49:48.717Z,99.74
2024-04-10T21:50:48.535Z,99.64
2024-04-10T21:51:48.477Z,99.85
2024-04-10T21:52:48.489Z,99.64
2024-04-10T21:53:48.506Z,99.95
2024-04-10T21:54:48.526Z,99.95
2024-04-10T21:55:48.413Z,99.99
2024-04-10T21:56:48.436Z,99.95
2024-04-10T21:57:48.358Z,99.95
2024-04-10T21:58:48.437Z,99.99
2024-04-10T22:00:58.832Z,99.89
2024-04-10T22:02:56.743Z,99.38
2024-04-10T22:03:56.802Z,99.89
2024-04-10T22:04:57.879Z,99.99
2024-04-10T22:05:57.849Z,99.89
2024-04-10T22:06:56.666Z,99.89
2024-04-10T22:07:56.645Z,99.69
2024-04-10T22:08:56.555Z,99.58
2024-04-10T22:09:56.516Z,99.99
2024-04-10T22:10:56.463Z,99.99
2024-04-10T22:11:56.564Z,99.79
2024-04-10T22:12:56.577Z,99.79
2024-04-10T22:13:56.391Z,99.89
2024-04-10T22:14:56.573Z,99.89
2024-04-10T22:15:56.379Z,99.99
2024-04-10T22:16:56.362Z,99.89
2024-04-10T22:17:56.497Z,99.89